Terminal Aerodrome Forecast
Issued by NWS

Home | Current Version | Previous Version | Text Only | Print | Product List | Glossary On
Versions: 1 2 3 4 5 6 7 8 9 10 11 12 13 14 15 16
000
FTUS41 KBGM 032322
TAFRME
TAF
KRME 032322Z 0400/0424 VRB03KT P6SM FEW250
     FM040900 VRB03KT P6SM BKN035 OVC100
      TEMPO 0409/0413 6SM -SHRA
     FM041700 16007KT P6SM BKN035 OVC120
      TEMPO 0417/0421 6SM -SHRA
     FM042100 17006KT P6SM BKN035=

USA.gov is the U.S. government's official web portal to all federal, state and local government web resources and services.